sensor_id;sensor_type;location;lat;lon;timestamp;P1;durP1;ratioP1;P2;durP2;ratioP2
40959;SDS011;27842;52.272;8.052;2023-09-12T00:00:40;18.83;;;9.05;;
40959;SDS011;27842;52.272;8.052;2023-09-12T00:03:06;17.85;;;9.18;;
40959;SDS011;27842;52.272;8.052;2023-09-12T00:05:32;17.88;;;8.30;;
40959;SDS011;27842;52.272;8.052;2023-09-12T00:07:57;18.08;;;8.38;;
40959;SDS011;27842;52.272;8.052;2023-09-12T00:10:23;16.23;;;8.40;;
40959;SDS011;27842;52.272;8.052;2023-09-12T00:12:48;19.35;;;8.63;;
40959;SDS011;27842;52.272;8.052;2023-09-12T00:15:14;16.35;;;8.38;;
40959;SDS011;27842;52.272;8.052;2023-09-12T00:17:39;16.92;;;8.43;;
40959;SDS011;27842;52.272;8.052;2023-09-12T00:20:05;17.55;;;9.63;;
40959;SDS011;27842;52.272;8.052;2023-09-12T00:22:32;20.20;;;10.80;;
40959;SDS011;27842;52.272;8.052;2023-09-12T00:24:58;20.48;;;10.80;;
40959;SDS011;27842;52.272;8.052;2023-09-12T00:27:23;19.75;;;10.60;;
40959;SDS011;27842;52.272;8.052;2023-09-12T00:29:49;19.50;;;10.80;;
40959;SDS011;27842;52.272;8.052;2023-09-12T00:32:15;19.58;;;10.77;;
40959;SDS011;27842;52.272;8.052;2023-09-12T00:34:41;21.58;;;11.48;;
40959;SDS011;27842;52.272;8.052;2023-09-12T00:37:06;22.42;;;12.27;;
40959;SDS011;27842;52.272;8.052;2023-09-12T00:39:32;23.60;;;12.10;;
40959;SDS011;27842;52.272;8.052;2023-09-12T00:41:58;21.65;;;11.95;;
40959;SDS011;27842;52.272;8.052;2023-09-12T00:44:23;22.33;;;12.52;;
40959;SDS011;27842;52.272;8.052;2023-09-12T00:46:49;23.25;;;12.90;;
40959;SDS011;27842;52.272;8.052;2023-09-12T00:49:15;22.00;;;11.65;;
40959;SDS011;27842;52.272;8.052;2023-09-12T00:51:42;20.83;;;11.57;;
40959;SDS011;27842;52.272;8.052;2023-09-12T00:54:09;21.75;;;11.45;;
40959;SDS011;27842;52.272;8.052;2023-09-12T00:56:36;19.38;;;11.32;;
40959;SDS011;27842;52.272;8.052;2023-09-12T00:59:01;20.83;;;11.70;;
40959;SDS011;27842;52.272;8.052;2023-09-12T01:01:28;19.98;;;11.68;;
40959;SDS011;27842;52.272;8.052;2023-09-12T01:03:56;19.40;;;11.70;;
40959;SDS011;27842;52.272;8.052;2023-09-12T01:06:22;20.52;;;12.02;;
40959;SDS011;27842;52.272;8.052;2023-09-12T01:08:51;21.25;;;11.68;;
40959;SDS011;27842;52.272;8.052;2023-09-12T01:11:17;20.25;;;12.15;;
40959;SDS011;27842;52.272;8.052;2023-09-12T01:13:45;21.50;;;12.70;;
40959;SDS011;27842;52.272;8.052;2023-09-12T01:16:10;21.17;;;12.68;;
40959;SDS011;27842;52.272;8.052;2023-09-12T01:18:36;22.67;;;13.20;;
40959;SDS011;27842;52.272;8.052;2023-09-12T01:21:10;21.35;;;12.93;;
40959;SDS011;27842;52.272;8.052;2023-09-12T01:26:49;21.02;;;12.30;;
40959;SDS011;27842;52.272;8.052;2023-09-12T01:29:20;22.40;;;12.63;;
40959;SDS011;27842;52.272;8.052;2023-09-12T01:31:47;20.55;;;12.57;;
40959;SDS011;27842;52.272;8.052;2023-09-12T01:34:15;19.65;;;12.25;;
40959;SDS011;27842;52.272;8.052;2023-09-12T01:36:41;21.65;;;12.35;;
40959;SDS011;27842;52.272;8.052;2023-09-12T01:39:07;23.85;;;14.43;;
40959;SDS011;27842;52.272;8.052;2023-09-12T01:41:34;21.67;;;14.35;;
40959;SDS011;27842;52.272;8.052;2023-09-12T01:44:04;24.70;;;15.18;;
40959;SDS011;27842;52.272;8.052;2023-09-12T01:46:31;26.60;;;16.08;;
40959;SDS011;27842;52.272;8.052;2023-09-12T01:48:59;24.20;;;16.00;;
40959;SDS011;27842;52.272;8.052;2023-09-12T01:51:25;24.58;;;16.33;;
40959;SDS011;27842;52.272;8.052;2023-09-12T01:53:51;25.30;;;16.42;;
40959;SDS011;27842;52.272;8.052;2023-09-12T01:56:19;25.17;;;16.70;;
40959;SDS011;27842;52.272;8.052;2023-09-12T01:58:46;24.40;;;16.30;;
40959;SDS011;27842;52.272;8.052;2023-09-12T02:01:11;26.90;;;17.15;;
40959;SDS011;27842;52.272;8.052;2023-09-12T02:03:37;31.55;;;17.05;;
40959;SDS011;27842;52.272;8.052;2023-09-12T02:06:03;27.27;;;15.77;;
40959;SDS011;27842;52.272;8.052;2023-09-12T02:08:28;24.23;;;15.02;;
40959;SDS011;27842;52.272;8.052;2023-09-12T02:10:54;22.27;;;13.82;;
40959;SDS011;27842;52.272;8.052;2023-09-12T02:13:20;26.50;;;15.07;;
40959;SDS011;27842;52.272;8.052;2023-09-12T02:15:45;24.65;;;13.27;;
40959;SDS011;27842;52.272;8.052;2023-09-12T02:18:11;23.67;;;15.10;;
40959;SDS011;27842;52.272;8.052;2023-09-12T02:20:40;22.90;;;13.07;;
40959;SDS011;27842;52.272;8.052;2023-09-12T02:23:06;22.58;;;12.77;;
40959;SDS011;27842;52.272;8.052;2023-09-12T02:25:32;22.10;;;12.57;;
40959;SDS011;27842;52.272;8.052;2023-09-12T02:27:57;24.30;;;13.38;;
40959;SDS011;27842;52.272;8.052;2023-09-12T02:30:23;20.65;;;11.88;;
40959;SDS011;27842;52.272;8.052;2023-09-12T02:32:49;21.75;;;11.82;;
40959;SDS011;27842;52.272;8.052;2023-09-12T02:35:14;20.63;;;11.63;;
40959;SDS011;27842;52.272;8.052;2023-09-12T02:37:40;19.65;;;11.88;;
40959;SDS011;27842;52.272;8.052;2023-09-12T02:40:06;21.88;;;12.15;;
40959;SDS011;27842;52.272;8.052;2023-09-12T02:42:32;21.95;;;12.15;;
40959;SDS011;27842;52.272;8.052;2023-09-12T02:44:57;19.10;;;11.93;;
40959;SDS011;27842;52.272;8.052;2023-09-12T02:47:23;21.40;;;12.45;;
40959;SDS011;27842;52.272;8.052;2023-09-12T02:49:49;20.85;;;11.73;;
40959;SDS011;27842;52.272;8.052;2023-09-12T02:52:14;18.25;;;10.88;;
40959;SDS011;27842;52.272;8.052;2023-09-12T02:54:40;21.33;;;11.10;;
40959;SDS011;27842;52.272;8.052;2023-09-12T02:57:05;18.85;;;10.05;;
40959;SDS011;27842;52.272;8.052;2023-09-12T02:59:31;20.35;;;10.65;;
40959;SDS011;27842;52.272;8.052;2023-09-12T03:01:56;18.38;;;10.20;;
40959;SDS011;27842;52.272;8.052;2023-09-12T03:04:24;19.50;;;11.10;;
40959;SDS011;27842;52.272;8.052;2023-09-12T03:06:52;18.30;;;10.95;;
40959;SDS011;27842;52.272;8.052;2023-09-12T03:09:18;18.75;;;10.32;;
40959;SDS011;27842;52.272;8.052;2023-09-12T03:11:44;18.38;;;9.85;;
40959;SDS011;27842;52.272;8.052;2023-09-12T03:14:10;18.88;;;9.80;;
40959;SDS011;27842;52.272;8.052;2023-09-12T03:16:35;18.35;;;9.15;;
40959;SDS011;27842;52.272;8.052;2023-09-12T03:19:02;18.23;;;9.43;;
40959;SDS011;27842;52.272;8.052;2023-09-12T03:21:28;17.75;;;9.30;;
40959;SDS011;27842;52.272;8.052;2023-09-12T03:23:54;16.50;;;9.55;;
40959;SDS011;27842;52.272;8.052;2023-09-12T03:26:19;18.20;;;9.13;;
40959;SDS011;27842;52.272;8.052;2023-09-12T03:28:45;18.27;;;9.52;;
40959;SDS011;27842;52.272;8.052;2023-09-12T03:31:14;19.00;;;10.18;;
40959;SDS011;27842;52.272;8.052;2023-09-12T03:36:06;18.67;;;10.30;;
40959;SDS011;27842;52.272;8.052;2023-09-12T03:38:32;18.05;;;10.27;;
40959;SDS011;27842;52.272;8.052;2023-09-12T03:40:58;18.80;;;10.40;;
40959;SDS011;27842;52.272;8.052;2023-09-12T03:43:24;18.20;;;10.38;;
40959;SDS011;27842;52.272;8.052;2023-09-12T03:45:50;18.05;;;10.20;;
40959;SDS011;27842;52.272;8.052;2023-09-12T03:48:16;17.50;;;9.07;;
40959;SDS011;27842;52.272;8.052;2023-09-12T03:50:41;17.00;;;8.50;;
40959;SDS011;27842;52.272;8.052;2023-09-12T03:53:07;17.10;;;7.97;;
40959;SDS011;27842;52.272;8.052;2023-09-12T03:55:33;16.48;;;7.30;;
40959;SDS011;27842;52.272;8.052;2023-09-12T03:57:59;15.73;;;6.03;;
40959;SDS011;27842;52.272;8.052;2023-09-12T04:00:24;14.70;;;5.93;;
40959;SDS011;27842;52.272;8.052;2023-09-12T04:02:50;13.05;;;6.22;;
40959;SDS011;27842;52.272;8.052;2023-09-12T04:05:15;14.13;;;5.78;;
40959;SDS011;27842;52.272;8.052;2023-09-12T04:07:41;13.13;;;4.80;;
40959;SDS011;27842;52.272;8.052;2023-09-12T04:10:06;12.65;;;4.88;;
40959;SDS011;27842;52.272;8.052;2023-09-12T04:12:33;13.02;;;4.70;;
40959;SDS011;27842;52.272;8.052;2023-09-12T04:14:58;10.95;;;4.68;;
40959;SDS011;27842;52.272;8.052;2023-09-12T04:17:24;11.40;;;4.65;;
40959;SDS011;27842;52.272;8.052;2023-09-12T04:19:49;11.88;;;4.60;;
40959;SDS011;27842;52.272;8.052;2023-09-12T04:22:15;10.15;;;4.32;;
40959;SDS011;27842;52.272;8.052;2023-09-12T04:24:41;11.93;;;4.32;;
40959;SDS011;27842;52.272;8.052;2023-09-12T04:27:06;8.98;;;4.25;;
40959;SDS011;27842;52.272;8.052;2023-09-12T04:29:33;8.80;;;3.80;;
40959;SDS011;27842;52.272;8.052;2023-09-12T04:34:30;11.10;;;3.78;;
40959;SDS011;27842;52.272;8.052;2023-09-12T04:36:56;10.95;;;3.80;;
40959;SDS011;27842;52.272;8.052;2023-09-12T04:39:22;10.05;;;4.00;;
40959;SDS011;27842;52.272;8.052;2023-09-12T04:41:48;11.45;;;4.13;;
40959;SDS011;27842;52.272;8.052;2023-09-12T04:44:13;9.43;;;3.60;;
40959;SDS011;27842;52.272;8.052;2023-09-12T04:46:39;7.97;;;3.88;;
40959;SDS011;27842;52.272;8.052;2023-09-12T04:49:05;11.70;;;3.90;;
40959;SDS011;27842;52.272;8.052;2023-09-12T04:51:30;10.02;;;3.72;;
40959;SDS011;27842;52.272;8.052;2023-09-12T04:53:56;12.02;;;4.03;;
40959;SDS011;27842;52.272;8.052;2023-09-12T04:56:21;10.90;;;4.20;;
40959;SDS011;27842;52.272;8.052;2023-09-12T04:58:49;9.85;;;3.70;;
40959;SDS011;27842;52.272;8.052;2023-09-12T05:01:15;10.05;;;4.35;;
40959;SDS011;27842;52.272;8.052;2023-09-12T05:03:41;10.82;;;4.10;;
40959;SDS011;27842;52.272;8.052;2023-09-12T05:06:07;12.55;;;4.43;;
40959;SDS011;27842;52.272;8.052;2023-09-12T05:08:33;13.48;;;4.38;;
40959;SDS011;27842;52.272;8.052;2023-09-12T05:10:58;10.77;;;4.00;;
40959;SDS011;27842;52.272;8.052;2023-09-12T05:13:24;14.50;;;4.70;;
40959;SDS011;27842;52.272;8.052;2023-09-12T05:15:49;14.25;;;4.78;;
40959;SDS011;27842;52.272;8.052;2023-09-12T05:18:15;14.90;;;4.43;;
40959;SDS011;27842;52.272;8.052;2023-09-12T05:20:41;14.95;;;4.40;;
40959;SDS011;27842;52.272;8.052;2023-09-12T05:23:06;13.30;;;4.15;;
40959;SDS011;27842;52.272;8.052;2023-09-12T05:25:32;11.65;;;4.00;;
40959;SDS011;27842;52.272;8.052;2023-09-12T05:27:57;10.43;;;4.03;;
40959;SDS011;27842;52.272;8.052;2023-09-12T05:30:23;10.95;;;4.40;;
40959;SDS011;27842;52.272;8.052;2023-09-12T05:32:49;13.23;;;4.47;;
40959;SDS011;27842;52.272;8.052;2023-09-12T05:35:14;12.45;;;4.78;;
40959;SDS011;27842;52.272;8.052;2023-09-12T05:37:40;13.15;;;4.75;;
40959;SDS011;27842;52.272;8.052;2023-09-12T05:40:05;13.60;;;4.45;;
40959;SDS011;27842;52.272;8.052;2023-09-12T05:42:31;13.63;;;4.85;;
40959;SDS011;27842;52.272;8.052;2023-09-12T05:44:57;12.00;;;4.72;;
40959;SDS011;27842;52.272;8.052;2023-09-12T05:50:45;12.68;;;4.60;;
40959;SDS011;27842;52.272;8.052;2023-09-12T05:53:10;13.20;;;4.78;;
40959;SDS011;27842;52.272;8.052;2023-09-12T05:55:36;15.05;;;5.10;;
40959;SDS011;27842;52.272;8.052;2023-09-12T05:58:02;12.80;;;4.72;;
40959;SDS011;27842;52.272;8.052;2023-09-12T06:02:56;12.02;;;4.53;;
40959;SDS011;27842;52.272;8.052;2023-09-12T06:05:22;13.25;;;4.57;;
40959;SDS011;27842;52.272;8.052;2023-09-12T06:07:47;13.00;;;4.82;;
40959;SDS011;27842;52.272;8.052;2023-09-12T06:10:13;12.05;;;4.80;;
40959;SDS011;27842;52.272;8.052;2023-09-12T06:12:38;11.35;;;4.72;;
40959;SDS011;27842;52.272;8.052;2023-09-12T06:15:04;12.52;;;4.80;;
40959;SDS011;27842;52.272;8.052;2023-09-12T06:17:30;12.57;;;5.38;;
40959;SDS011;27842;52.272;8.052;2023-09-12T06:20:09;9.77;;;4.40;;
40959;SDS011;27842;52.272;8.052;2023-09-12T06:25:00;14.25;;;5.10;;
40959;SDS011;27842;52.272;8.052;2023-09-12T06:27:26;9.18;;;4.25;;
40959;SDS011;27842;52.272;8.052;2023-09-12T06:29:52;11.88;;;4.47;;
40959;SDS011;27842;52.272;8.052;2023-09-12T06:32:18;10.23;;;4.75;;
40959;SDS011;27842;52.272;8.052;2023-09-12T06:34:44;12.43;;;4.63;;
40959;SDS011;27842;52.272;8.052;2023-09-12T06:37:10;12.40;;;5.10;;
40959;SDS011;27842;52.272;8.052;2023-09-12T06:39:36;11.63;;;5.07;;
40959;SDS011;27842;52.272;8.052;2023-09-12T06:42:02;11.50;;;5.07;;
40959;SDS011;27842;52.272;8.052;2023-09-12T06:44:28;11.75;;;4.90;;
40959;SDS011;27842;52.272;8.052;2023-09-12T06:46:54;11.32;;;4.85;;
40959;SDS011;27842;52.272;8.052;2023-09-12T06:49:20;12.98;;;5.70;;
40959;SDS011;27842;52.272;8.052;2023-09-12T06:51:45;11.57;;;5.05;;
40959;SDS011;27842;52.272;8.052;2023-09-12T06:54:11;11.23;;;5.25;;
40959;SDS011;27842;52.272;8.052;2023-09-12T06:56:37;13.45;;;5.43;;
40959;SDS011;27842;52.272;8.052;2023-09-12T06:59:03;13.57;;;4.97;;
40959;SDS011;27842;52.272;8.052;2023-09-12T07:01:30;14.27;;;5.60;;
40959;SDS011;27842;52.272;8.052;2023-09-12T07:03:55;16.23;;;5.95;;
40959;SDS011;27842;52.272;8.052;2023-09-12T07:06:21;11.10;;;5.43;;
40959;SDS011;27842;52.272;8.052;2023-09-12T07:08:47;14.10;;;5.47;;
40959;SDS011;27842;52.272;8.052;2023-09-12T07:11:13;13.07;;;5.25;;
40959;SDS011;27842;52.272;8.052;2023-09-12T07:13:39;12.65;;;5.45;;
40959;SDS011;27842;52.272;8.052;2023-09-12T07:16:04;14.45;;;5.78;;
40959;SDS011;27842;52.272;8.052;2023-09-12T07:18:33;12.23;;;5.53;;
40959;SDS011;27842;52.272;8.052;2023-09-12T07:23:25;14.40;;;5.53;;
40959;SDS011;27842;52.272;8.052;2023-09-12T07:25:50;13.73;;;6.00;;
40959;SDS011;27842;52.272;8.052;2023-09-12T07:28:17;17.77;;;7.03;;
40959;SDS011;27842;52.272;8.052;2023-09-12T07:30:45;16.35;;;6.60;;
40959;SDS011;27842;52.272;8.052;2023-09-12T07:33:11;17.80;;;7.00;;
40959;SDS011;27842;52.272;8.052;2023-09-12T07:35:37;15.77;;;7.25;;
40959;SDS011;27842;52.272;8.052;2023-09-12T07:38:02;17.25;;;7.00;;
40959;SDS011;27842;52.272;8.052;2023-09-12T07:40:28;15.02;;;7.20;;
40959;SDS011;27842;52.272;8.052;2023-09-12T07:42:54;17.02;;;7.15;;
40959;SDS011;27842;52.272;8.052;2023-09-12T07:45:20;15.55;;;7.45;;
40959;SDS011;27842;52.272;8.052;2023-09-12T07:47:46;18.58;;;7.93;;
40959;SDS011;27842;52.272;8.052;2023-09-12T07:50:12;16.90;;;8.02;;
40959;SDS011;27842;52.272;8.052;2023-09-12T07:52:38;17.60;;;8.50;;
40959;SDS011;27842;52.272;8.052;2023-09-12T07:55:04;19.20;;;8.25;;
40959;SDS011;27842;52.272;8.052;2023-09-12T07:57:30;18.60;;;8.50;;
40959;SDS011;27842;52.272;8.052;2023-09-12T07:59:56;18.50;;;8.35;;
40959;SDS011;27842;52.272;8.052;2023-09-12T08:02:22;19.52;;;9.38;;
40959;SDS011;27842;52.272;8.052;2023-09-12T08:04:50;17.88;;;8.63;;
40959;SDS011;27842;52.272;8.052;2023-09-12T08:07:16;19.30;;;9.00;;
40959;SDS011;27842;52.272;8.052;2023-09-12T08:12:19;19.88;;;9.38;;
40959;SDS011;27842;52.272;8.052;2023-09-12T08:14:46;17.77;;;9.38;;
40959;SDS011;27842;52.272;8.052;2023-09-12T08:17:12;15.88;;;9.00;;
40959;SDS011;27842;52.272;8.052;2023-09-12T08:19:42;16.55;;;8.75;;
40959;SDS011;27842;52.272;8.052;2023-09-12T08:22:08;17.67;;;9.23;;
40959;SDS011;27842;52.272;8.052;2023-09-12T08:24:35;17.42;;;8.95;;
40959;SDS011;27842;52.272;8.052;2023-09-12T08:27:01;20.70;;;10.40;;
40959;SDS011;27842;52.272;8.052;2023-09-12T08:29:30;18.20;;;10.45;;
40959;SDS011;27842;52.272;8.052;2023-09-12T08:31:57;20.05;;;10.20;;
40959;SDS011;27842;52.272;8.052;2023-09-12T08:34:23;18.30;;;10.88;;
40959;SDS011;27842;52.272;8.052;2023-09-12T08:36:49;17.55;;;10.45;;
40959;SDS011;27842;52.272;8.052;2023-09-12T08:39:15;19.27;;;11.20;;
40959;SDS011;27842;52.272;8.052;2023-09-12T08:41:42;18.50;;;10.18;;
40959;SDS011;27842;52.272;8.052;2023-09-12T08:44:11;18.60;;;11.32;;
40959;SDS011;27842;52.272;8.052;2023-09-12T08:46:36;18.73;;;10.32;;
40959;SDS011;27842;52.272;8.052;2023-09-12T08:49:03;22.08;;;11.15;;
40959;SDS011;27842;52.272;8.052;2023-09-12T08:51:31;19.00;;;11.40;;
40959;SDS011;27842;52.272;8.052;2023-09-12T08:53:57;18.48;;;10.68;;
40959;SDS011;27842;52.272;8.052;2023-09-12T08:56:23;19.02;;;11.38;;
40959;SDS011;27842;52.272;8.052;2023-09-12T08:58:49;18.85;;;10.68;;
40959;SDS011;27842;52.272;8.052;2023-09-12T09:01:16;18.60;;;10.52;;
40959;SDS011;27842;52.272;8.052;2023-09-12T09:03:44;19.30;;;11.10;;
40959;SDS011;27842;52.272;8.052;2023-09-12T09:06:10;19.63;;;10.93;;
40959;SDS011;27842;52.272;8.052;2023-09-12T09:08:38;19.80;;;11.13;;
40959;SDS011;27842;52.272;8.052;2023-09-12T09:11:04;20.48;;;11.13;;
40959;SDS011;27842;52.272;8.052;2023-09-12T09:13:33;19.00;;;11.52;;
40959;SDS011;27842;52.272;8.052;2023-09-12T09:16:15;19.90;;;11.60;;
40959;SDS011;27842;52.272;8.052;2023-09-12T09:18:51;19.60;;;11.77;;
40959;SDS011;27842;52.272;8.052;2023-09-12T09:21:21;20.42;;;11.73;;
40959;SDS011;27842;52.272;8.052;2023-09-12T09:23:51;21.13;;;11.65;;
40959;SDS011;27842;52.272;8.052;2023-09-12T09:26:18;21.65;;;12.38;;
40959;SDS011;27842;52.272;8.052;2023-09-12T09:28:44;19.83;;;11.65;;
40959;SDS011;27842;52.272;8.052;2023-09-12T09:31:11;23.88;;;12.90;;
40959;SDS011;27842;52.272;8.052;2023-09-12T09:33:38;23.33;;;12.23;;
40959;SDS011;27842;52.272;8.052;2023-09-12T09:36:06;21.47;;;12.80;;
40959;SDS011;27842;52.272;8.052;2023-09-12T09:38:36;22.70;;;12.63;;
40959;SDS011;27842;52.272;8.052;2023-09-12T09:41:05;21.77;;;13.23;;
40959;SDS011;27842;52.272;8.052;2023-09-12T09:43:32;21.20;;;13.50;;
40959;SDS011;27842;52.272;8.052;2023-09-12T09:45:58;23.00;;;13.65;;
40959;SDS011;27842;52.272;8.052;2023-09-12T09:48:24;20.27;;;13.32;;
40959;SDS011;27842;52.272;8.052;2023-09-12T09:51:02;22.15;;;13.45;;
40959;SDS011;27842;52.272;8.052;2023-09-12T09:53:31;21.33;;;12.52;;
40959;SDS011;27842;52.272;8.052;2023-09-12T09:58:56;21.90;;;13.23;;
40959;SDS011;27842;52.272;8.052;2023-09-12T10:01:23;23.40;;;13.93;;
40959;SDS011;27842;52.272;8.052;2023-09-12T10:03:52;23.85;;;14.30;;
40959;SDS011;27842;52.272;8.052;2023-09-12T10:06:24;20.35;;;13.30;;
40959;SDS011;27842;52.272;8.052;2023-09-12T10:08:52;22.63;;;13.88;;
40959;SDS011;27842;52.272;8.052;2023-09-12T10:11:22;21.67;;;14.18;;
40959;SDS011;27842;52.272;8.052;2023-09-12T10:13:49;21.80;;;13.85;;
40959;SDS011;27842;52.272;8.052;2023-09-12T10:16:20;22.52;;;13.30;;
40959;SDS011;27842;52.272;8.052;2023-09-12T10:18:58;22.00;;;13.60;;
40959;SDS011;27842;52.272;8.052;2023-09-12T10:21:30;22.85;;;14.35;;
40959;SDS011;27842;52.272;8.052;2023-09-12T10:23:58;21.23;;;13.65;;
40959;SDS011;27842;52.272;8.052;2023-09-12T10:26:24;20.63;;;13.52;;
40959;SDS011;27842;52.272;8.052;2023-09-12T10:28:50;19.45;;;11.93;;
40959;SDS011;27842;52.272;8.052;2023-09-12T10:31:17;21.20;;;13.02;;
40959;SDS011;27842;52.272;8.052;2023-09-12T10:33:43;20.20;;;11.45;;
40959;SDS011;27842;52.272;8.052;2023-09-12T10:36:09;20.05;;;12.07;;
40959;SDS011;27842;52.272;8.052;2023-09-12T10:38:40;19.52;;;11.73;;
40959;SDS011;27842;52.272;8.052;2023-09-12T10:41:13;19.25;;;11.88;;
40959;SDS011;27842;52.272;8.052;2023-09-12T10:43:40;19.10;;;12.15;;
40959;SDS011;27842;52.272;8.052;2023-09-12T10:46:07;18.58;;;11.77;;
40959;SDS011;27842;52.272;8.052;2023-09-12T10:48:37;21.00;;;11.98;;
40959;SDS011;27842;52.272;8.052;2023-09-12T10:51:05;19.17;;;12.30;;
40959;SDS011;27842;52.272;8.052;2023-09-12T10:53:32;18.00;;;11.45;;
40959;SDS011;27842;52.272;8.052;2023-09-12T10:56:20;19.35;;;12.10;;
40959;SDS011;27842;52.272;8.052;2023-09-12T11:01:29;20.08;;;11.80;;
40959;SDS011;27842;52.272;8.052;2023-09-12T11:03:56;17.95;;;11.52;;
40959;SDS011;27842;52.272;8.052;2023-09-12T11:06:24;18.10;;;11.07;;
40959;SDS011;27842;52.272;8.052;2023-09-12T11:11:38;19.10;;;11.38;;
40959;SDS011;27842;52.272;8.052;2023-09-12T11:14:07;18.90;;;11.10;;
40959;SDS011;27842;52.272;8.052;2023-09-12T11:16:34;17.77;;;10.60;;
40959;SDS011;27842;52.272;8.052;2023-09-12T11:21:37;19.17;;;11.27;;
40959;SDS011;27842;52.272;8.052;2023-09-12T11:24:02;16.42;;;9.57;;
40959;SDS011;27842;52.272;8.052;2023-09-12T11:26:29;16.65;;;9.95;;
40959;SDS011;27842;52.272;8.052;2023-09-12T11:28:54;19.15;;;10.80;;
40959;SDS011;27842;52.272;8.052;2023-09-12T11:31:26;16.92;;;8.43;;
40959;SDS011;27842;52.272;8.052;2023-09-12T11:33:52;18.25;;;9.27;;
40959;SDS011;27842;52.272;8.052;2023-09-12T11:36:18;14.82;;;8.10;;
40959;SDS011;27842;52.272;8.052;2023-09-12T11:38:46;18.50;;;9.20;;
40959;SDS011;27842;52.272;8.052;2023-09-12T11:41:14;16.95;;;8.65;;
40959;SDS011;27842;52.272;8.052;2023-09-12T11:44:06;20.80;;;10.23;;
40959;SDS011;27842;52.272;8.052;2023-09-12T11:46:33;17.42;;;10.88;;
40959;SDS011;27842;52.272;8.052;2023-09-12T11:49:00;17.80;;;9.98;;
40959;SDS011;27842;52.272;8.052;2023-09-12T11:51:26;17.73;;;10.52;;
40959;SDS011;27842;52.272;8.052;2023-09-12T11:53:52;18.17;;;11.10;;
40959;SDS011;27842;52.272;8.052;2023-09-12T11:56:18;19.90;;;11.18;;
40959;SDS011;27842;52.272;8.052;2023-09-12T11:58:44;16.38;;;8.73;;
40959;SDS011;27842;52.272;8.052;2023-09-12T12:01:11;15.80;;;8.88;;
40959;SDS011;27842;52.272;8.052;2023-09-12T12:03:37;18.47;;;9.30;;
40959;SDS011;27842;52.272;8.052;2023-09-12T12:06:03;16.42;;;9.88;;
40959;SDS011;27842;52.272;8.052;2023-09-12T12:08:30;18.38;;;10.50;;
40959;SDS011;27842;52.272;8.052;2023-09-12T12:10:56;21.05;;;9.88;;
40959;SDS011;27842;52.272;8.052;2023-09-12T12:13:23;19.15;;;10.65;;
40959;SDS011;27842;52.272;8.052;2023-09-12T12:15:49;18.45;;;8.45;;
40959;SDS011;27842;52.272;8.052;2023-09-12T12:18:15;16.65;;;7.20;;
40959;SDS011;27842;52.272;8.052;2023-09-12T12:20:41;16.98;;;8.85;;
40959;SDS011;27842;52.272;8.052;2023-09-12T12:23:07;18.85;;;9.32;;
40959;SDS011;27842;52.272;8.052;2023-09-12T12:25:33;17.85;;;9.15;;
40959;SDS011;27842;52.272;8.052;2023-09-12T12:28:00;16.85;;;8.93;;
40959;SDS011;27842;52.272;8.052;2023-09-12T12:30:32;15.95;;;8.48;;
40959;SDS011;27842;52.272;8.052;2023-09-12T12:33:00;15.35;;;8.45;;
40959;SDS011;27842;52.272;8.052;2023-09-12T12:35:27;14.93;;;7.43;;
40959;SDS011;27842;52.272;8.052;2023-09-12T12:37:54;12.93;;;6.32;;
40959;SDS011;27842;52.272;8.052;2023-09-12T12:40:23;14.23;;;6.45;;
40959;SDS011;27842;52.272;8.052;2023-09-12T12:42:50;15.13;;;7.20;;
40959;SDS011;27842;52.272;8.052;2023-09-12T12:45:17;13.18;;;6.40;;
40959;SDS011;27842;52.272;8.052;2023-09-12T12:47:50;13.40;;;5.50;;
40959;SDS011;27842;52.272;8.052;2023-09-12T12:50:17;13.13;;;5.80;;
40959;SDS011;27842;52.272;8.052;2023-09-12T12:52:46;13.68;;;5.80;;
40959;SDS011;27842;52.272;8.052;2023-09-12T12:55:13;14.95;;;6.55;;
40959;SDS011;27842;52.272;8.052;2023-09-12T12:57:44;13.40;;;6.18;;
40959;SDS011;27842;52.272;8.052;2023-09-12T13:00:13;16.08;;;6.43;;
40959;SDS011;27842;52.272;8.052;2023-09-12T13:02:41;12.07;;;6.10;;
40959;SDS011;27842;52.272;8.052;2023-09-12T13:07:52;15.80;;;6.50;;
40959;SDS011;27842;52.272;8.052;2023-09-12T13:10:19;13.73;;;6.18;;
40959;SDS011;27842;52.272;8.052;2023-09-12T13:12:45;13.20;;;5.95;;
40959;SDS011;27842;52.272;8.052;2023-09-12T13:15:11;15.50;;;6.60;;
40959;SDS011;27842;52.272;8.052;2023-09-12T13:17:37;12.88;;;6.05;;
40959;SDS011;27842;52.272;8.052;2023-09-12T13:20:04;13.13;;;6.05;;
40959;SDS011;27842;52.272;8.052;2023-09-12T13:22:33;12.98;;;5.75;;
40959;SDS011;27842;52.272;8.052;2023-09-12T13:24:59;12.90;;;5.80;;
40959;SDS011;27842;52.272;8.052;2023-09-12T13:27:25;12.02;;;5.35;;
40959;SDS011;27842;52.272;8.052;2023-09-12T13:29:50;12.27;;;5.70;;
40959;SDS011;27842;52.272;8.052;2023-09-12T13:32:16;10.77;;;5.30;;
40959;SDS011;27842;52.272;8.052;2023-09-12T13:34:43;12.88;;;6.10;;
40959;SDS011;27842;52.272;8.052;2023-09-12T13:37:09;17.30;;;6.32;;
40959;SDS011;27842;52.272;8.052;2023-09-12T13:39:35;13.15;;;5.53;;
40959;SDS011;27842;52.272;8.052;2023-09-12T13:42:00;12.38;;;5.32;;
40959;SDS011;27842;52.272;8.052;2023-09-12T13:44:28;13.73;;;6.03;;
40959;SDS011;27842;52.272;8.052;2023-09-12T13:46:53;14.13;;;6.15;;
40959;SDS011;27842;52.272;8.052;2023-09-12T13:49:19;13.57;;;6.22;;
40959;SDS011;27842;52.272;8.052;2023-09-12T13:51:45;13.75;;;6.47;;
40959;SDS011;27842;52.272;8.052;2023-09-12T13:54:10;13.63;;;6.68;;
40959;SDS011;27842;52.272;8.052;2023-09-12T13:56:40;14.23;;;6.10;;
40959;SDS011;27842;52.272;8.052;2023-09-12T13:59:06;12.82;;;6.00;;
40959;SDS011;27842;52.272;8.052;2023-09-12T14:01:32;21.00;;;12.20;;
40959;SDS011;27842;52.272;8.052;2023-09-12T14:03:57;15.98;;;7.85;;
40959;SDS011;27842;52.272;8.052;2023-09-12T14:06:23;15.52;;;6.95;;
40959;SDS011;27842;52.272;8.052;2023-09-12T14:08:48;12.07;;;5.88;;
40959;SDS011;27842;52.272;8.052;2023-09-12T14:11:14;12.20;;;5.88;;
40959;SDS011;27842;52.272;8.052;2023-09-12T14:13:40;13.45;;;6.53;;
40959;SDS011;27842;52.272;8.052;2023-09-12T14:16:05;12.75;;;5.80;;
40959;SDS011;27842;52.272;8.052;2023-09-12T14:18:31;13.90;;;6.18;;
40959;SDS011;27842;52.272;8.052;2023-09-12T14:20:56;12.90;;;5.80;;
40959;SDS011;27842;52.272;8.052;2023-09-12T14:23:22;14.02;;;5.88;;
40959;SDS011;27842;52.272;8.052;2023-09-12T14:25:48;13.38;;;5.53;;
40959;SDS011;27842;52.272;8.052;2023-09-12T14:28:13;13.85;;;5.40;;
40959;SDS011;27842;52.272;8.052;2023-09-12T14:30:39;11.75;;;5.47;;
40959;SDS011;27842;52.272;8.052;2023-09-12T14:33:09;13.45;;;6.13;;
40959;SDS011;27842;52.272;8.052;2023-09-12T14:35:34;15.73;;;5.68;;
40959;SDS011;27842;52.272;8.052;2023-09-12T14:38:01;14.77;;;6.30;;
40959;SDS011;27842;52.272;8.052;2023-09-12T14:40:27;14.45;;;6.03;;
40959;SDS011;27842;52.272;8.052;2023-09-12T14:42:53;11.75;;;5.43;;
40959;SDS011;27842;52.272;8.052;2023-09-12T14:45:18;11.73;;;5.50;;
40959;SDS011;27842;52.272;8.052;2023-09-12T14:47:44;11.98;;;5.90;;
40959;SDS011;27842;52.272;8.052;2023-09-12T14:50:10;12.68;;;5.07;;
40959;SDS011;27842;52.272;8.052;2023-09-12T14:52:36;15.18;;;5.35;;
40959;SDS011;27842;52.272;8.052;2023-09-12T14:55:03;9.13;;;4.72;;
40959;SDS011;27842;52.272;8.052;2023-09-12T14:57:29;10.80;;;4.68;;
40959;SDS011;27842;52.272;8.052;2023-09-12T14:59:55;12.52;;;4.90;;